Ponca City Regional Airport
KPNC : rendu visible

Aérodrome :











RETROUVEZ-NOUS SUR...

 
LOGIN :

S'inscrire | Disclaimer

   EN    FR    IT 

 









Légende :    VFR   VFR Marginal   IFR   IFR Intensif   IFR Très Intensif
Visi : 
Plafond : 
>= 8 km
>= 3000ft
5 à 8 km
1000 à 3000 ft
1500m à 5 km
500 à 1000 ft
800 à 1500m
200 à 500 ft
< 800m
< 200 ft
Symboles :   Orages  Brouillard  Fortes neiges  Fortes précipitations  Vent > 20 kt






- Altitude de l'aérodrome : 1008 ft


KPNC - Ponca City Regional

DERNIER METAR :
  • 291310Z AUTO 34012KT 10SM -RA SCT013 BKN018 OVC070 07/ A2999 RMK AO2 P0001 T0067 $

METARs EXPIRÉS :
  • 291253Z AUTO 34012KT 8SM -RA BKN013 OVC060 07/ A2999 RMK AO2 SLP156 P0007 T0067 $
  • 291153Z AUTO 34010KT 5SM RA BKN012 BKN016 OVC021 06/M46 A2995 RMK AO2 SLP143 P0018 60079 70234 T00561461 10067 20050 53039 $
  • 291053Z AUTO 01014KT 6SM -RA OVC014 06/M16 A2990 RMK AO2 SLP127 P0013 T00561156 $

TAF KPNC
Valide du 29 à 12h jusqu'au 30 à 12h UTC


291120Z 2912/3012 36020G30KT 5SM -RA BR OVC012
FM291600 36017G24KT P6SM SCT015
FM300000 27006KT P6SM SKC
FM300900 34004KT 1/2SM FZFG VV002
FIR KZKC / Amérique du Nord



MET'MAP, la Météo Aéronautique d'un coup d'oeil ! - Copyright ORBIFLY Décembre 2007 - Disclaimer

ORBIFLY MET'MAP TEAM :

Programmation & Développement : Alexandra Zaïnal
Sur une idée originale de : Baudouin d'Aumeries
Assistance à la programmation : Marc-Olivier Méhu
Soutien technique & logistique : Manuel Goepfert

Contact : metmap@orbifly.com




SOURCES & CREDITS :

   NOAA       Earth
Advisory